Terminal Aerodrome Forecast
Issued by NWS

Home | Current Version | Previous Version | Text Only | Print | Product List | Glossary On
Versions: 1 2 3 4 5 6 7 8 9 10 11 12 13 14 15 16 17 18 19 20 21 22 23 24 25
584
FTAK31 PANC 090539
TAFATK
TAF
PATK 090539Z 0906/1006 04015KT P6SM BKN100
      TEMPO 0906/0910 04015G25KT
     FM091200 03010KT P6SM BKN150=

USA.gov is the U.S. government's official web portal to all federal, state and local government web resources and services.